sensor_id;sensor_type;location;lat;lon;timestamp;P1;durP1;ratioP1;P2;durP2;ratioP2
23470;SDS011;11908;50.806;4.424;2023-03-14T00:01:35;5.55;;;1.33;;
23470;SDS011;11908;50.806;4.424;2023-03-14T00:04:00;6.00;;;1.50;;
23470;SDS011;11908;50.806;4.424;2023-03-14T00:06:28;7.70;;;1.67;;
23470;SDS011;11908;50.806;4.424;2023-03-14T00:08:56;10.52;;;2.28;;
23470;SDS011;11908;50.806;4.424;2023-03-14T00:11:22;10.55;;;1.70;;
23470;SDS011;11908;50.806;4.424;2023-03-14T00:13:48;10.27;;;1.80;;
23470;SDS011;11908;50.806;4.424;2023-03-14T00:16:15;7.78;;;2.17;;
23470;SDS011;11908;50.806;4.424;2023-03-14T00:18:41;12.38;;;2.35;;
23470;SDS011;11908;50.806;4.424;2023-03-14T00:21:07;13.27;;;2.15;;
23470;SDS011;11908;50.806;4.424;2023-03-14T00:23:34;12.57;;;2.55;;
23470;SDS011;11908;50.806;4.424;2023-03-14T00:26:02;7.53;;;1.75;;
23470;SDS011;11908;50.806;4.424;2023-03-14T00:28:29;8.93;;;1.67;;
23470;SDS011;11908;50.806;4.424;2023-03-14T00:30:55;8.45;;;1.60;;
23470;SDS011;11908;50.806;4.424;2023-03-14T00:33:22;7.43;;;1.80;;
23470;SDS011;11908;50.806;4.424;2023-03-14T00:35:55;9.18;;;1.38;;
23470;SDS011;11908;50.806;4.424;2023-03-14T00:38:22;11.45;;;2.50;;
23470;SDS011;11908;50.806;4.424;2023-03-14T00:40:49;15.88;;;2.20;;
23470;SDS011;11908;50.806;4.424;2023-03-14T00:43:15;12.27;;;2.38;;
23470;SDS011;11908;50.806;4.424;2023-03-14T00:45:41;8.30;;;1.85;;
23470;SDS011;11908;50.806;4.424;2023-03-14T00:48:06;8.48;;;1.65;;
23470;SDS011;11908;50.806;4.424;2023-03-14T00:50:32;11.27;;;2.10;;
23470;SDS011;11908;50.806;4.424;2023-03-14T00:52:58;12.23;;;2.28;;
23470;SDS011;11908;50.806;4.424;2023-03-14T00:55:24;15.68;;;2.17;;
23470;SDS011;11908;50.806;4.424;2023-03-14T00:57:49;10.13;;;2.10;;
23470;SDS011;11908;50.806;4.424;2023-03-14T01:00:17;8.80;;;2.17;;
23470;SDS011;11908;50.806;4.424;2023-03-14T01:02:42;9.80;;;2.42;;
23470;SDS011;11908;50.806;4.424;2023-03-14T01:05:08;7.97;;;1.98;;
23470;SDS011;11908;50.806;4.424;2023-03-14T01:07:35;13.05;;;2.30;;
23470;SDS011;11908;50.806;4.424;2023-03-14T01:10:01;9.57;;;2.00;;
23470;SDS011;11908;50.806;4.424;2023-03-14T01:12:29;13.38;;;2.45;;
23470;SDS011;11908;50.806;4.424;2023-03-14T01:14:54;18.58;;;2.75;;
23470;SDS011;11908;50.806;4.424;2023-03-14T01:17:20;14.02;;;2.60;;
23470;SDS011;11908;50.806;4.424;2023-03-14T01:19:46;8.65;;;2.67;;
23470;SDS011;11908;50.806;4.424;2023-03-14T01:22:12;12.88;;;2.28;;
23470;SDS011;11908;50.806;4.424;2023-03-14T01:24:37;17.52;;;2.33;;
23470;SDS011;11908;50.806;4.424;2023-03-14T01:27:03;10.75;;;2.10;;
23470;SDS011;11908;50.806;4.424;2023-03-14T01:29:29;13.15;;;2.00;;
23470;SDS011;11908;50.806;4.424;2023-03-14T01:31:54;11.45;;;2.72;;
23470;SDS011;11908;50.806;4.424;2023-03-14T01:34:20;9.25;;;2.22;;
23470;SDS011;11908;50.806;4.424;2023-03-14T01:36:46;13.45;;;2.28;;
23470;SDS011;11908;50.806;4.424;2023-03-14T01:39:11;17.27;;;2.92;;
23470;SDS011;11908;50.806;4.424;2023-03-14T01:41:38;11.35;;;1.95;;
23470;SDS011;11908;50.806;4.424;2023-03-14T01:44:05;10.10;;;1.88;;
23470;SDS011;11908;50.806;4.424;2023-03-14T01:46:36;9.60;;;1.73;;
23470;SDS011;11908;50.806;4.424;2023-03-14T01:49:11;6.47;;;1.73;;
23470;SDS011;11908;50.806;4.424;2023-03-14T01:54:19;6.85;;;1.17;;
23470;SDS011;11908;50.806;4.424;2023-03-14T01:56:57;6.63;;;1.40;;
23470;SDS011;11908;50.806;4.424;2023-03-14T01:59:49;6.03;;;1.58;;
23470;SDS011;11908;50.806;4.424;2023-03-14T02:02:21;4.30;;;1.05;;
23470;SDS011;11908;50.806;4.424;2023-03-14T02:04:48;6.40;;;1.13;;
23470;SDS011;11908;50.806;4.424;2023-03-14T02:07:37;15.10;;;1.60;;
23470;SDS011;11908;50.806;4.424;2023-03-14T02:10:06;6.20;;;1.60;;
23470;SDS011;11908;50.806;4.424;2023-03-14T02:12:32;5.30;;;1.13;;
23470;SDS011;11908;50.806;4.424;2023-03-14T02:14:59;6.80;;;1.23;;
23470;SDS011;11908;50.806;4.424;2023-03-14T02:17:24;7.50;;;1.65;;
23470;SDS011;11908;50.806;4.424;2023-03-14T02:19:54;9.85;;;1.63;;
23470;SDS011;11908;50.806;4.424;2023-03-14T02:22:34;7.68;;;1.20;;
23470;SDS011;11908;50.806;4.424;2023-03-14T02:25:08;7.50;;;1.00;;
23470;SDS011;11908;50.806;4.424;2023-03-14T02:27:42;4.75;;;1.02;;
23470;SDS011;11908;50.806;4.424;2023-03-14T02:30:26;3.70;;;1.10;;
23470;SDS011;11908;50.806;4.424;2023-03-14T02:33:04;4.40;;;0.93;;
23470;SDS011;11908;50.806;4.424;2023-03-14T02:35:55;6.97;;;1.05;;
23470;SDS011;11908;50.806;4.424;2023-03-14T02:40:54;10.07;;;1.70;;
23470;SDS011;11908;50.806;4.424;2023-03-14T02:43:19;3.22;;;1.40;;
23470;SDS011;11908;50.806;4.424;2023-03-14T02:45:46;7.40;;;1.92;;
23470;SDS011;11908;50.806;4.424;2023-03-14T02:48:17;6.22;;;1.77;;
23470;SDS011;11908;50.806;4.424;2023-03-14T02:50:50;9.52;;;2.08;;
23470;SDS011;11908;50.806;4.424;2023-03-14T02:53:27;9.45;;;2.30;;
23470;SDS011;11908;50.806;4.424;2023-03-14T02:55:56;8.85;;;2.20;;
23470;SDS011;11908;50.806;4.424;2023-03-14T02:58:22;11.18;;;2.20;;
23470;SDS011;11908;50.806;4.424;2023-03-14T03:00:48;11.77;;;3.25;;
23470;SDS011;11908;50.806;4.424;2023-03-14T03:03:14;12.93;;;2.72;;
23470;SDS011;11908;50.806;4.424;2023-03-14T03:05:40;15.05;;;2.97;;
23470;SDS011;11908;50.806;4.424;2023-03-14T03:08:07;10.75;;;3.15;;
23470;SDS011;11908;50.806;4.424;2023-03-14T03:10:33;11.35;;;2.55;;
23470;SDS011;11908;50.806;4.424;2023-03-14T03:12:59;10.68;;;2.72;;
23470;SDS011;11908;50.806;4.424;2023-03-14T03:15:25;14.25;;;2.72;;
23470;SDS011;11908;50.806;4.424;2023-03-14T03:17:50;11.85;;;2.55;;
23470;SDS011;11908;50.806;4.424;2023-03-14T03:20:16;11.73;;;2.70;;
23470;SDS011;11908;50.806;4.424;2023-03-14T03:22:42;15.23;;;3.42;;
23470;SDS011;11908;50.806;4.424;2023-03-14T03:25:08;13.95;;;3.35;;
23470;SDS011;11908;50.806;4.424;2023-03-14T03:27:34;13.73;;;2.92;;
23470;SDS011;11908;50.806;4.424;2023-03-14T03:30:01;18.88;;;3.42;;
23470;SDS011;11908;50.806;4.424;2023-03-14T03:32:27;13.25;;;2.80;;
23470;SDS011;11908;50.806;4.424;2023-03-14T03:34:53;12.00;;;2.50;;
23470;SDS011;11908;50.806;4.424;2023-03-14T03:37:19;15.23;;;2.92;;
23470;SDS011;11908;50.806;4.424;2023-03-14T03:39:44;13.57;;;2.88;;
23470;SDS011;11908;50.806;4.424;2023-03-14T03:42:10;10.20;;;2.80;;
23470;SDS011;11908;50.806;4.424;2023-03-14T03:44:36;12.10;;;4.05;;
23470;SDS011;11908;50.806;4.424;2023-03-14T03:47:02;11.93;;;3.08;;
23470;SDS011;11908;50.806;4.424;2023-03-14T03:49:31;9.65;;;2.63;;
23470;SDS011;11908;50.806;4.424;2023-03-14T03:51:57;10.07;;;3.03;;
23470;SDS011;11908;50.806;4.424;2023-03-14T03:54:23;7.97;;;3.10;;
23470;SDS011;11908;50.806;4.424;2023-03-14T03:56:49;11.60;;;2.63;;
23470;SDS011;11908;50.806;4.424;2023-03-14T03:59:15;12.07;;;2.80;;
23470;SDS011;11908;50.806;4.424;2023-03-14T04:01:41;11.98;;;3.17;;
23470;SDS011;11908;50.806;4.424;2023-03-14T04:04:07;9.63;;;3.40;;
23470;SDS011;11908;50.806;4.424;2023-03-14T04:06:32;6.43;;;2.85;;
23470;SDS011;11908;50.806;4.424;2023-03-14T04:08:58;7.95;;;2.88;;
23470;SDS011;11908;50.806;4.424;2023-03-14T04:11:24;9.25;;;3.35;;
23470;SDS011;11908;50.806;4.424;2023-03-14T04:13:50;11.52;;;4.28;;
23470;SDS011;11908;50.806;4.424;2023-03-14T04:16:23;12.45;;;3.80;;
23470;SDS011;11908;50.806;4.424;2023-03-14T04:18:49;6.57;;;3.20;;
23470;SDS011;11908;50.806;4.424;2023-03-14T04:21:15;11.52;;;4.20;;
23470;SDS011;11908;50.806;4.424;2023-03-14T04:23:41;9.85;;;3.45;;
23470;SDS011;11908;50.806;4.424;2023-03-14T04:26:07;8.32;;;3.47;;
23470;SDS011;11908;50.806;4.424;2023-03-14T04:28:33;12.02;;;3.55;;
23470;SDS011;11908;50.806;4.424;2023-03-14T04:31:11;5.40;;;3.08;;
23470;SDS011;11908;50.806;4.424;2023-03-14T04:33:39;9.00;;;3.35;;
23470;SDS011;11908;50.806;4.424;2023-03-14T04:36:05;7.97;;;2.92;;
23470;SDS011;11908;50.806;4.424;2023-03-14T04:38:32;15.07;;;4.38;;
23470;SDS011;11908;50.806;4.424;2023-03-14T04:40:57;8.30;;;3.22;;
23470;SDS011;11908;50.806;4.424;2023-03-14T04:43:24;9.88;;;3.22;;
23470;SDS011;11908;50.806;4.424;2023-03-14T04:45:51;5.97;;;3.35;;
23470;SDS011;11908;50.806;4.424;2023-03-14T04:48:18;8.38;;;3.17;;
23470;SDS011;11908;50.806;4.424;2023-03-14T04:50:44;11.00;;;3.70;;
23470;SDS011;11908;50.806;4.424;2023-03-14T04:53:11;11.52;;;3.90;;
23470;SDS011;11908;50.806;4.424;2023-03-14T04:55:37;8.93;;;3.90;;
23470;SDS011;11908;50.806;4.424;2023-03-14T04:58:02;7.32;;;3.75;;
23470;SDS011;11908;50.806;4.424;2023-03-14T05:00:28;11.43;;;4.15;;
23470;SDS011;11908;50.806;4.424;2023-03-14T05:02:54;7.70;;;4.00;;
23470;SDS011;11908;50.806;4.424;2023-03-14T05:05:20;7.47;;;4.13;;
23470;SDS011;11908;50.806;4.424;2023-03-14T05:07:46;12.50;;;4.78;;
23470;SDS011;11908;50.806;4.424;2023-03-14T05:10:12;7.22;;;4.72;;
23470;SDS011;11908;50.806;4.424;2023-03-14T05:12:38;10.38;;;5.30;;
23470;SDS011;11908;50.806;4.424;2023-03-14T05:15:03;7.75;;;4.70;;
23470;SDS011;11908;50.806;4.424;2023-03-14T05:17:30;8.32;;;4.45;;
23470;SDS011;11908;50.806;4.424;2023-03-14T05:19:58;6.75;;;4.78;;
23470;SDS011;11908;50.806;4.424;2023-03-14T05:22:23;6.00;;;3.80;;
23470;SDS011;11908;50.806;4.424;2023-03-14T05:24:49;6.32;;;4.00;;
23470;SDS011;11908;50.806;4.424;2023-03-14T05:27:15;4.75;;;3.08;;
23470;SDS011;11908;50.806;4.424;2023-03-14T05:29:41;8.10;;;3.72;;
23470;SDS011;11908;50.806;4.424;2023-03-14T05:32:06;7.57;;;3.72;;
23470;SDS011;11908;50.806;4.424;2023-03-14T05:34:32;6.28;;;3.30;;
23470;SDS011;11908;50.806;4.424;2023-03-14T05:36:58;5.13;;;3.03;;
23470;SDS011;11908;50.806;4.424;2023-03-14T05:39:23;4.93;;;2.85;;
23470;SDS011;11908;50.806;4.424;2023-03-14T05:41:49;4.47;;;2.60;;
23470;SDS011;11908;50.806;4.424;2023-03-14T05:44:16;5.40;;;3.00;;
23470;SDS011;11908;50.806;4.424;2023-03-14T05:46:41;6.07;;;2.95;;
23470;SDS011;11908;50.806;4.424;2023-03-14T05:49:07;5.10;;;2.55;;
23470;SDS011;11908;50.806;4.424;2023-03-14T05:51:33;4.25;;;2.50;;
23470;SDS011;11908;50.806;4.424;2023-03-14T05:53:58;5.65;;;2.88;;
23470;SDS011;11908;50.806;4.424;2023-03-14T05:56:24;7.43;;;2.95;;
23470;SDS011;11908;50.806;4.424;2023-03-14T05:58:50;5.55;;;3.00;;
23470;SDS011;11908;50.806;4.424;2023-03-14T06:01:15;6.20;;;3.15;;
23470;SDS011;11908;50.806;4.424;2023-03-14T06:03:41;8.10;;;3.10;;
23470;SDS011;11908;50.806;4.424;2023-03-14T06:06:07;5.30;;;3.10;;
23470;SDS011;11908;50.806;4.424;2023-03-14T06:08:32;5.72;;;2.67;;
23470;SDS011;11908;50.806;4.424;2023-03-14T06:10:59;6.65;;;3.10;;
23470;SDS011;11908;50.806;4.424;2023-03-14T06:13:27;4.78;;;2.85;;
23470;SDS011;11908;50.806;4.424;2023-03-14T06:15:52;5.75;;;2.65;;
23470;SDS011;11908;50.806;4.424;2023-03-14T06:18:18;7.57;;;3.53;;
23470;SDS011;11908;50.806;4.424;2023-03-14T06:20:44;4.45;;;2.92;;
23470;SDS011;11908;50.806;4.424;2023-03-14T06:23:10;5.88;;;3.28;;
23470;SDS011;11908;50.806;4.424;2023-03-14T06:25:35;4.85;;;2.67;;
23470;SDS011;11908;50.806;4.424;2023-03-14T06:28:02;6.28;;;3.00;;
23470;SDS011;11908;50.806;4.424;2023-03-14T06:30:27;4.57;;;3.10;;
23470;SDS011;11908;50.806;4.424;2023-03-14T06:32:53;5.05;;;2.83;;
23470;SDS011;11908;50.806;4.424;2023-03-14T06:35:20;4.40;;;2.28;;
23470;SDS011;11908;50.806;4.424;2023-03-14T06:37:46;4.93;;;2.80;;
23470;SDS011;11908;50.806;4.424;2023-03-14T06:40:12;4.55;;;2.50;;
23470;SDS011;11908;50.806;4.424;2023-03-14T06:42:42;4.43;;;2.63;;
23470;SDS011;11908;50.806;4.424;2023-03-14T06:45:08;5.57;;;2.58;;
23470;SDS011;11908;50.806;4.424;2023-03-14T06:47:34;4.07;;;2.50;;
23470;SDS011;11908;50.806;4.424;2023-03-14T06:50:00;5.07;;;2.45;;
23470;SDS011;11908;50.806;4.424;2023-03-14T06:52:26;2.53;;;2.03;;
23470;SDS011;11908;50.806;4.424;2023-03-14T06:54:52;3.30;;;2.00;;
23470;SDS011;11908;50.806;4.424;2023-03-14T06:57:18;2.92;;;1.70;;
23470;SDS011;11908;50.806;4.424;2023-03-14T06:59:43;3.80;;;1.92;;
23470;SDS011;11908;50.806;4.424;2023-03-14T07:02:12;3.65;;;1.92;;
23470;SDS011;11908;50.806;4.424;2023-03-14T07:04:38;4.63;;;2.03;;
23470;SDS011;11908;50.806;4.424;2023-03-14T07:07:04;2.95;;;2.50;;
23470;SDS011;11908;50.806;4.424;2023-03-14T07:09:30;3.33;;;2.28;;
23470;SDS011;11908;50.806;4.424;2023-03-14T07:11:56;5.43;;;2.55;;
23470;SDS011;11908;50.806;4.424;2023-03-14T07:14:22;7.53;;;2.33;;
23470;SDS011;11908;50.806;4.424;2023-03-14T07:16:48;7.00;;;1.88;;
23470;SDS011;11908;50.806;4.424;2023-03-14T07:19:13;3.95;;;1.25;;
23470;SDS011;11908;50.806;4.424;2023-03-14T07:21:39;4.68;;;1.90;;
23470;SDS011;11908;50.806;4.424;2023-03-14T07:24:05;6.68;;;1.88;;
23470;SDS011;11908;50.806;4.424;2023-03-14T07:26:31;3.17;;;1.90;;
23470;SDS011;11908;50.806;4.424;2023-03-14T07:28:56;6.20;;;1.67;;
23470;SDS011;11908;50.806;4.424;2023-03-14T07:31:22;7.53;;;1.83;;
23470;SDS011;11908;50.806;4.424;2023-03-14T07:33:48;6.25;;;2.05;;
23470;SDS011;11908;50.806;4.424;2023-03-14T07:36:14;5.03;;;2.10;;
23470;SDS011;11908;50.806;4.424;2023-03-14T07:38:39;6.65;;;2.65;;
23470;SDS011;11908;50.806;4.424;2023-03-14T07:41:06;3.10;;;1.85;;
23470;SDS011;11908;50.806;4.424;2023-03-14T07:43:32;9.55;;;2.40;;
23470;SDS011;11908;50.806;4.424;2023-03-14T07:45:58;3.30;;;2.22;;
23470;SDS011;11908;50.806;4.424;2023-03-14T07:48:24;3.45;;;2.20;;
23470;SDS011;11908;50.806;4.424;2023-03-14T07:50:52;4.65;;;2.10;;
23470;SDS011;11908;50.806;4.424;2023-03-14T07:53:18;5.93;;;2.60;;
23470;SDS011;11908;50.806;4.424;2023-03-14T07:55:44;7.78;;;2.22;;
23470;SDS011;11908;50.806;4.424;2023-03-14T07:58:11;4.40;;;2.63;;
23470;SDS011;11908;50.806;4.424;2023-03-14T08:00:37;4.32;;;2.70;;
23470;SDS011;11908;50.806;4.424;2023-03-14T08:03:03;6.57;;;3.60;;
23470;SDS011;11908;50.806;4.424;2023-03-14T08:05:28;5.90;;;3.63;;
23470;SDS011;11908;50.806;4.424;2023-03-14T08:07:54;8.55;;;3.60;;
23470;SDS011;11908;50.806;4.424;2023-03-14T08:10:20;8.95;;;4.00;;
23470;SDS011;11908;50.806;4.424;2023-03-14T08:12:46;8.50;;;4.13;;
23470;SDS011;11908;50.806;4.424;2023-03-14T08:15:11;11.30;;;4.10;;
23470;SDS011;11908;50.806;4.424;2023-03-14T08:17:37;8.93;;;4.18;;
23470;SDS011;11908;50.806;4.424;2023-03-14T08:20:03;5.03;;;4.13;;
23470;SDS011;11908;50.806;4.424;2023-03-14T08:22:33;8.57;;;4.35;;
23470;SDS011;11908;50.806;4.424;2023-03-14T08:24:59;8.23;;;4.07;;
23470;SDS011;11908;50.806;4.424;2023-03-14T08:27:25;6.75;;;3.60;;
23470;SDS011;11908;50.806;4.424;2023-03-14T08:29:50;7.60;;;3.13;;
23470;SDS011;11908;50.806;4.424;2023-03-14T08:32:16;5.60;;;3.17;;
23470;SDS011;11908;50.806;4.424;2023-03-14T08:34:42;9.90;;;3.83;;
23470;SDS011;11908;50.806;4.424;2023-03-14T08:37:07;5.25;;;2.95;;
23470;SDS011;11908;50.806;4.424;2023-03-14T08:39:33;6.72;;;3.05;;
23470;SDS011;11908;50.806;4.424;2023-03-14T08:41:59;9.77;;;3.03;;
23470;SDS011;11908;50.806;4.424;2023-03-14T08:44:24;6.20;;;2.40;;
23470;SDS011;11908;50.806;4.424;2023-03-14T08:46:50;5.93;;;2.50;;
23470;SDS011;11908;50.806;4.424;2023-03-14T08:49:16;5.60;;;2.33;;
23470;SDS011;11908;50.806;4.424;2023-03-14T08:51:41;6.60;;;2.20;;
23470;SDS011;11908;50.806;4.424;2023-03-14T08:54:09;4.78;;;2.42;;
23470;SDS011;11908;50.806;4.424;2023-03-14T08:56:35;8.30;;;2.90;;
23470;SDS011;11908;50.806;4.424;2023-03-14T08:59:03;9.85;;;3.15;;
23470;SDS011;11908;50.806;4.424;2023-03-14T09:01:29;5.65;;;2.83;;
23470;SDS011;11908;50.806;4.424;2023-03-14T09:03:55;9.57;;;3.42;;
23470;SDS011;11908;50.806;4.424;2023-03-14T09:06:20;8.38;;;3.83;;
23470;SDS011;11908;50.806;4.424;2023-03-14T09:08:46;8.85;;;3.75;;
23470;SDS011;11908;50.806;4.424;2023-03-14T09:11:12;9.30;;;3.22;;
23470;SDS011;11908;50.806;4.424;2023-03-14T09:13:38;10.27;;;3.20;;
23470;SDS011;11908;50.806;4.424;2023-03-14T09:16:04;8.25;;;3.25;;
23470;SDS011;11908;50.806;4.424;2023-03-14T09:18:31;10.95;;;3.00;;
23470;SDS011;11908;50.806;4.424;2023-03-14T09:20:57;8.48;;;3.10;;
23470;SDS011;11908;50.806;4.424;2023-03-14T09:23:22;17.10;;;4.10;;
23470;SDS011;11908;50.806;4.424;2023-03-14T09:25:48;12.50;;;3.55;;
23470;SDS011;11908;50.806;4.424;2023-03-14T09:28:14;10.45;;;3.60;;
23470;SDS011;11908;50.806;4.424;2023-03-14T09:30:39;13.43;;;3.63;;
23470;SDS011;11908;50.806;4.424;2023-03-14T09:33:05;10.07;;;3.42;;
23470;SDS011;11908;50.806;4.424;2023-03-14T09:35:30;12.57;;;3.50;;
23470;SDS011;11908;50.806;4.424;2023-03-14T09:37:58;14.20;;;3.15;;
23470;SDS011;11908;50.806;4.424;2023-03-14T09:40:24;7.72;;;2.97;;
23470;SDS011;11908;50.806;4.424;2023-03-14T09:42:56;12.95;;;3.35;;
23470;SDS011;11908;50.806;4.424;2023-03-14T09:45:34;12.88;;;3.28;;
23470;SDS011;11908;50.806;4.424;2023-03-14T09:48:02;20.60;;;7.55;;
23470;SDS011;11908;50.806;4.424;2023-03-14T09:50:39;10.23;;;3.45;;
23470;SDS011;11908;50.806;4.424;2023-03-14T09:53:12;4.75;;;2.42;;
23470;SDS011;11908;50.806;4.424;2023-03-14T09:55:42;14.95;;;6.45;;
23470;SDS011;11908;50.806;4.424;2023-03-14T09:58:11;7.70;;;2.72;;
23470;SDS011;11908;50.806;4.424;2023-03-14T10:00:38;6.18;;;2.53;;
23470;SDS011;11908;50.806;4.424;2023-03-14T10:05:40;6.55;;;2.30;;
23470;SDS011;11908;50.806;4.424;2023-03-14T10:08:09;7.32;;;2.45;;
23470;SDS011;11908;50.806;4.424;2023-03-14T10:10:35;8.10;;;2.65;;
23470;SDS011;11908;50.806;4.424;2023-03-14T10:18:27;11.05;;;2.75;;
23470;SDS011;11908;50.806;4.424;2023-03-14T10:21:05;9.32;;;3.03;;
23470;SDS011;11908;50.806;4.424;2023-03-14T10:23:41;10.57;;;3.15;;
23470;SDS011;11908;50.806;4.424;2023-03-14T10:26:11;12.45;;;2.60;;
23470;SDS011;11908;50.806;4.424;2023-03-14T10:29:02;7.53;;;2.22;;
23470;SDS011;11908;50.806;4.424;2023-03-14T10:31:53;3.92;;;1.70;;
23470;SDS011;11908;50.806;4.424;2023-03-14T10:34:25;9.68;;;2.20;;
23470;SDS011;11908;50.806;4.424;2023-03-14T10:40:00;5.72;;;2.17;;
23470;SDS011;11908;50.806;4.424;2023-03-14T10:42:31;8.73;;;2.75;;
23470;SDS011;11908;50.806;4.424;2023-03-14T10:45:07;9.55;;;2.72;;
23470;SDS011;11908;50.806;4.424;2023-03-14T10:47:58;12.10;;;2.60;;
23470;SDS011;11908;50.806;4.424;2023-03-14T10:53:49;12.80;;;2.63;;
23470;SDS011;11908;50.806;4.424;2023-03-14T10:56:24;9.68;;;2.40;;
23470;SDS011;11908;50.806;4.424;2023-03-14T10:58:52;7.63;;;2.03;;
23470;SDS011;11908;50.806;4.424;2023-03-14T11:10:30;10.88;;;2.65;;
23470;SDS011;11908;50.806;4.424;2023-03-14T11:18:53;8.85;;;2.10;;
23470;SDS011;11908;50.806;4.424;2023-03-14T11:24:05;13.00;;;2.17;;
23470;SDS011;11908;50.806;4.424;2023-03-14T11:27:03;9.50;;;2.15;;
23470;SDS011;11908;50.806;4.424;2023-03-14T11:34:57;5.32;;;1.73;;
23470;SDS011;11908;50.806;4.424;2023-03-14T11:37:34;5.15;;;1.05;;
23470;SDS011;11908;50.806;4.424;2023-03-14T11:40:07;3.53;;;0.80;;
23470;SDS011;11908;50.806;4.424;2023-03-14T11:42:44;3.30;;;0.70;;
23470;SDS011;11908;50.806;4.424;2023-03-14T11:45:16;3.22;;;0.80;;
23470;SDS011;11908;50.806;4.424;2023-03-14T11:47:46;1.98;;;0.75;;
23470;SDS011;11908;50.806;4.424;2023-03-14T11:50:32;5.63;;;0.90;;
23470;SDS011;11908;50.806;4.424;2023-03-14T11:53:08;4.15;;;0.70;;
23470;SDS011;11908;50.806;4.424;2023-03-14T11:55:40;1.10;;;0.65;;
23470;SDS011;11908;50.806;4.424;2023-03-14T12:00:51;2.75;;;0.60;;
23470;SDS011;11908;50.806;4.424;2023-03-14T12:03:33;2.13;;;0.77;;
23470;SDS011;11908;50.806;4.424;2023-03-14T12:08:49;1.23;;;0.60;;
23470;SDS011;11908;50.806;4.424;2023-03-14T12:11:38;2.35;;;0.82;;
23470;SDS011;11908;50.806;4.424;2023-03-14T12:16:54;1.88;;;1.10;;
23470;SDS011;11908;50.806;4.424;2023-03-14T12:21:53;1.08;;;0.80;;
23470;SDS011;11908;50.806;4.424;2023-03-14T12:24:29;3.05;;;1.00;;
23470;SDS011;11908;50.806;4.424;2023-03-14T12:26:59;1.83;;;1.08;;
23470;SDS011;11908;50.806;4.424;2023-03-14T12:29:26;1.25;;;0.98;;
23470;SDS011;11908;50.806;4.424;2023-03-14T12:34:46;3.38;;;1.80;;
23470;SDS011;11908;50.806;4.424;2023-03-14T12:40:20;2.33;;;1.63;;
23470;SDS011;11908;50.806;4.424;2023-03-14T12:43:03;2.72;;;1.85;;
23470;SDS011;11908;50.806;4.424;2023-03-14T12:45:43;5.60;;;1.50;;
23470;SDS011;11908;50.806;4.424;2023-03-14T12:48:34;2.42;;;1.80;;
23470;SDS011;11908;50.806;4.424;2023-03-14T12:51:03;3.75;;;1.40;;
23470;SDS011;11908;50.806;4.424;2023-03-14T12:56:21;2.67;;;1.67;;
23470;SDS011;11908;50.806;4.424;2023-03-14T12:58:54;3.13;;;1.70;;
23470;SDS011;11908;50.806;4.424;2023-03-14T13:01:23;2.65;;;1.98;;
23470;SDS011;11908;50.806;4.424;2023-03-14T13:03:50;4.72;;;1.90;;
23470;SDS011;11908;50.806;4.424;2023-03-14T13:09:34;3.10;;;2.00;;
23470;SDS011;11908;50.806;4.424;2023-03-14T13:12:08;3.88;;;1.60;;
23470;SDS011;11908;50.806;4.424;2023-03-14T13:14:35;3.00;;;1.27;;
23470;SDS011;11908;50.806;4.424;2023-03-14T13:17:11;4.35;;;1.60;;
23470;SDS011;11908;50.806;4.424;2023-03-14T13:19:38;2.30;;;1.55;;
23470;SDS011;11908;50.806;4.424;2023-03-14T13:22:05;2.47;;;1.30;;
23470;SDS011;11908;50.806;4.424;2023-03-14T13:24:40;3.08;;;1.33;;
23470;SDS011;11908;50.806;4.424;2023-03-14T13:27:08;2.90;;;1.50;;
23470;SDS011;11908;50.806;4.424;2023-03-14T13:29:45;8.27;;;1.40;;
23470;SDS011;11908;50.806;4.424;2023-03-14T13:32:17;2.58;;;1.73;;
23470;SDS011;11908;50.806;4.424;2023-03-14T13:34:45;6.85;;;1.83;;
23470;SDS011;11908;50.806;4.424;2023-03-14T13:37:16;3.97;;;2.00;;
23470;SDS011;11908;50.806;4.424;2023-03-14T13:39:44;6.40;;;2.08;;
23470;SDS011;11908;50.806;4.424;2023-03-14T13:42:18;7.53;;;2.00;;
23470;SDS011;11908;50.806;4.424;2023-03-14T13:44:44;7.20;;;2.10;;
23470;SDS011;11908;50.806;4.424;2023-03-14T13:47:13;8.50;;;2.75;;
23470;SDS011;11908;50.806;4.424;2023-03-14T13:49:41;13.57;;;2.63;;
23470;SDS011;11908;50.806;4.424;2023-03-14T13:54:56;22.13;;;4.07;;
23470;SDS011;11908;50.806;4.424;2023-03-14T13:57:23;14.05;;;2.97;;
23470;SDS011;11908;50.806;4.424;2023-03-14T13:59:59;15.57;;;3.60;;
23470;SDS011;11908;50.806;4.424;2023-03-14T14:02:30;19.63;;;3.67;;
23470;SDS011;11908;50.806;4.424;2023-03-14T14:05:00;18.08;;;3.65;;
23470;SDS011;11908;50.806;4.424;2023-03-14T14:07:26;15.50;;;3.42;;
23470;SDS011;11908;50.806;4.424;2023-03-14T14:09:53;19.50;;;2.90;;
23470;SDS011;11908;50.806;4.424;2023-03-14T14:12:22;19.38;;;3.05;;
23470;SDS011;11908;50.806;4.424;2023-03-14T14:15:01;16.70;;;3.33;;
23470;SDS011;11908;50.806;4.424;2023-03-14T14:20:04;16.63;;;3.03;;
23470;SDS011;11908;50.806;4.424;2023-03-14T14:22:33;17.00;;;2.63;;
23470;SDS011;11908;50.806;4.424;2023-03-14T14:25:00;18.27;;;2.92;;
23470;SDS011;11908;50.806;4.424;2023-03-14T14:27:35;21.33;;;3.30;;
23470;SDS011;11908;50.806;4.424;2023-03-14T14:30:06;16.10;;;3.05;;
23470;SDS011;11908;50.806;4.424;2023-03-14T14:32:50;17.58;;;2.78;;
23470;SDS011;11908;50.806;4.424;2023-03-14T14:35:24;12.38;;;2.38;;
23470;SDS011;11908;50.806;4.424;2023-03-14T14:37:58;13.45;;;2.75;;
23470;SDS011;11908;50.806;4.424;2023-03-14T14:40:25;16.27;;;2.33;;
23470;SDS011;11908;50.806;4.424;2023-03-14T14:42:52;15.90;;;3.70;;
23470;SDS011;11908;50.806;4.424;2023-03-14T14:45:19;15.13;;;2.88;;
23470;SDS011;11908;50.806;4.424;2023-03-14T14:48:06;17.98;;;3.13;;
23470;SDS011;11908;50.806;4.424;2023-03-14T14:50:39;11.90;;;2.25;;
23470;SDS011;11908;50.806;4.424;2023-03-14T14:53:38;16.15;;;2.70;;
23470;SDS011;11908;50.806;4.424;2023-03-14T14:56:14;7.20;;;1.50;;
23470;SDS011;11908;50.806;4.424;2023-03-14T14:58:44;11.80;;;2.08;;
23470;SDS011;11908;50.806;4.424;2023-03-14T15:01:15;5.80;;;1.35;;
23470;SDS011;11908;50.806;4.424;2023-03-14T15:03:45;3.95;;;1.40;;
23470;SDS011;11908;50.806;4.424;2023-03-14T15:06:13;2.72;;;1.00;;
23470;SDS011;11908;50.806;4.424;2023-03-14T15:08:40;4.50;;;1.40;;
23470;SDS011;11908;50.806;4.424;2023-03-14T15:11:21;1.40;;;0.60;;
23470;SDS011;11908;50.806;4.424;2023-03-14T15:13:49;4.28;;;0.73;;
23470;SDS011;11908;50.806;4.424;2023-03-14T15:16:16;3.95;;;0.90;;
23470;SDS011;11908;50.806;4.424;2023-03-14T15:18:45;3.40;;;1.00;;
23470;SDS011;11908;50.806;4.424;2023-03-14T15:21:14;4.47;;;0.90;;
23470;SDS011;11908;50.806;4.424;2023-03-14T15:23:40;5.10;;;0.80;;
23470;SDS011;11908;50.806;4.424;2023-03-14T15:26:13;2.13;;;0.57;;
23470;SDS011;11908;50.806;4.424;2023-03-14T15:28:42;2.65;;;0.70;;
23470;SDS011;11908;50.806;4.424;2023-03-14T15:31:09;1.77;;;0.70;;
23470;SDS011;11908;50.806;4.424;2023-03-14T15:33:36;4.32;;;0.70;;
23470;SDS011;11908;50.806;4.424;2023-03-14T15:36:02;4.00;;;0.93;;
23470;SDS011;11908;50.806;4.424;2023-03-14T15:38:39;4.85;;;0.90;;
23470;SDS011;11908;50.806;4.424;2023-03-14T15:41:05;2.25;;;0.75;;
23470;SDS011;11908;50.806;4.424;2023-03-14T15:43:31;2.92;;;0.88;;
23470;SDS011;11908;50.806;4.424;2023-03-14T15:45:56;1.50;;;0.80;;
23470;SDS011;11908;50.806;4.424;2023-03-14T15:48:23;4.03;;;0.80;;
23470;SDS011;11908;50.806;4.424;2023-03-14T15:50:48;4.65;;;1.05;;
23470;SDS011;11908;50.806;4.424;2023-03-14T15:53:14;2.03;;;0.95;;
23470;SDS011;11908;50.806;4.424;2023-03-14T15:55:40;2.88;;;0.80;;
23470;SDS011;11908;50.806;4.424;2023-03-14T15:58:06;4.00;;;1.15;;
23470;SDS011;11908;50.806;4.424;2023-03-14T16:00:34;3.42;;;1.10;;
23470;SDS011;11908;50.806;4.424;2023-03-14T16:03:02;3.42;;;1.17;;